sensor_id;sensor_type;location;lat;lon;timestamp;P1;durP1;ratioP1;P2;durP2;ratioP2
17943;SDS011;9097;47.028;15.444;2022-07-06T00:01:21;3.53;;;2.90;;
17943;SDS011;9097;47.028;15.444;2022-07-06T00:04:24;4.32;;;3.60;;
17943;SDS011;9097;47.028;15.444;2022-07-06T00:07:27;3.58;;;2.75;;
17943;SDS011;9097;47.028;15.444;2022-07-06T00:10:30;9.10;;;4.18;;
17943;SDS011;9097;47.028;15.444;2022-07-06T00:13:34;5.68;;;2.80;;
17943;SDS011;9097;47.028;15.444;2022-07-06T00:16:37;3.17;;;2.45;;
17943;SDS011;9097;47.028;15.444;2022-07-06T00:19:39;2.95;;;2.65;;
17943;SDS011;9097;47.028;15.444;2022-07-06T00:22:42;4.43;;;2.90;;
17943;SDS011;9097;47.028;15.444;2022-07-06T00:25:44;2.85;;;2.65;;
17943;SDS011;9097;47.028;15.444;2022-07-06T00:28:49;3.47;;;2.20;;
17943;SDS011;9097;47.028;15.444;2022-07-06T00:31:52;3.38;;;2.95;;
17943;SDS011;9097;47.028;15.444;2022-07-06T00:34:55;3.05;;;2.55;;
17943;SDS011;9097;47.028;15.444;2022-07-06T00:37:57;4.57;;;2.60;;
17943;SDS011;9097;47.028;15.444;2022-07-06T00:41:00;2.83;;;2.10;;
17943;SDS011;9097;47.028;15.444;2022-07-06T00:44:07;3.40;;;2.45;;
17943;SDS011;9097;47.028;15.444;2022-07-06T00:47:10;2.65;;;2.40;;
17943;SDS011;9097;47.028;15.444;2022-07-06T00:50:13;4.72;;;2.90;;
17943;SDS011;9097;47.028;15.444;2022-07-06T00:53:18;3.75;;;2.92;;
17943;SDS011;9097;47.028;15.444;2022-07-06T00:56:20;4.43;;;2.90;;
17943;SDS011;9097;47.028;15.444;2022-07-06T00:59:25;2.25;;;2.03;;
17943;SDS011;9097;47.028;15.444;2022-07-06T01:02:30;2.45;;;2.25;;
17943;SDS011;9097;47.028;15.444;2022-07-06T01:05:33;3.13;;;2.70;;
17943;SDS011;9097;47.028;15.444;2022-07-06T01:08:40;4.30;;;2.92;;
17943;SDS011;9097;47.028;15.444;2022-07-06T01:11:43;3.35;;;2.70;;
17943;SDS011;9097;47.028;15.444;2022-07-06T01:14:47;3.17;;;2.35;;
17943;SDS011;9097;47.028;15.444;2022-07-06T01:17:49;8.90;;;3.92;;
17943;SDS011;9097;47.028;15.444;2022-07-06T01:21:05;4.03;;;3.00;;
17943;SDS011;9097;47.028;15.444;2022-07-06T01:24:08;2.60;;;2.38;;
17943;SDS011;9097;47.028;15.444;2022-07-06T01:27:11;3.20;;;2.90;;
17943;SDS011;9097;47.028;15.444;2022-07-06T01:30:14;3.53;;;2.65;;
17943;SDS011;9097;47.028;15.444;2022-07-06T01:33:17;3.08;;;2.58;;
17943;SDS011;9097;47.028;15.444;2022-07-06T01:36:21;3.80;;;3.35;;
17943;SDS011;9097;47.028;15.444;2022-07-06T01:39:24;3.55;;;2.95;;
17943;SDS011;9097;47.028;15.444;2022-07-06T01:42:27;4.15;;;2.95;;
17943;SDS011;9097;47.028;15.444;2022-07-06T01:45:31;3.13;;;2.67;;
17943;SDS011;9097;47.028;15.444;2022-07-06T01:48:34;3.70;;;3.05;;
17943;SDS011;9097;47.028;15.444;2022-07-06T01:51:38;11.10;;;3.33;;
17943;SDS011;9097;47.028;15.444;2022-07-06T01:54:40;3.20;;;2.40;;
17943;SDS011;9097;47.028;15.444;2022-07-06T01:57:43;2.25;;;1.92;;
17943;SDS011;9097;47.028;15.444;2022-07-06T02:00:46;5.68;;;2.63;;
17943;SDS011;9097;47.028;15.444;2022-07-06T02:03:48;4.03;;;2.85;;
17943;SDS011;9097;47.028;15.444;2022-07-06T02:06:53;3.42;;;2.47;;
17943;SDS011;9097;47.028;15.444;2022-07-06T02:09:56;2.85;;;2.47;;
17943;SDS011;9097;47.028;15.444;2022-07-06T02:12:58;3.85;;;2.97;;
17943;SDS011;9097;47.028;15.444;2022-07-06T02:16:01;4.00;;;2.58;;
17943;SDS011;9097;47.028;15.444;2022-07-06T02:19:03;3.83;;;3.13;;
17943;SDS011;9097;47.028;15.444;2022-07-06T02:22:07;2.42;;;2.22;;
17943;SDS011;9097;47.028;15.444;2022-07-06T02:25:10;2.60;;;2.40;;
17943;SDS011;9097;47.028;15.444;2022-07-06T02:28:12;2.80;;;2.60;;
17943;SDS011;9097;47.028;15.444;2022-07-06T02:31:15;3.25;;;2.65;;
17943;SDS011;9097;47.028;15.444;2022-07-06T02:34:18;2.85;;;2.65;;
17943;SDS011;9097;47.028;15.444;2022-07-06T02:37:22;4.10;;;2.83;;
17943;SDS011;9097;47.028;15.444;2022-07-06T02:40:24;3.10;;;2.83;;
17943;SDS011;9097;47.028;15.444;2022-07-06T02:43:27;3.25;;;2.95;;
17943;SDS011;9097;47.028;15.444;2022-07-06T02:46:29;4.45;;;2.65;;
17943;SDS011;9097;47.028;15.444;2022-07-06T02:49:32;4.47;;;2.67;;
17943;SDS011;9097;47.028;15.444;2022-07-06T02:52:36;2.70;;;2.50;;
17943;SDS011;9097;47.028;15.444;2022-07-06T02:55:39;3.92;;;2.75;;
17943;SDS011;9097;47.028;15.444;2022-07-06T02:58:41;3.97;;;2.80;;
17943;SDS011;9097;47.028;15.444;2022-07-06T03:01:44;6.18;;;3.50;;
17943;SDS011;9097;47.028;15.444;2022-07-06T03:04:46;3.97;;;3.45;;
17943;SDS011;9097;47.028;15.444;2022-07-06T03:07:50;5.38;;;3.53;;
17943;SDS011;9097;47.028;15.444;2022-07-06T03:10:53;3.35;;;3.05;;
17943;SDS011;9097;47.028;15.444;2022-07-06T03:13:56;3.92;;;3.00;;
17943;SDS011;9097;47.028;15.444;2022-07-06T03:16:59;3.13;;;2.83;;
17943;SDS011;9097;47.028;15.444;2022-07-06T03:20:02;5.00;;;3.13;;
17943;SDS011;9097;47.028;15.444;2022-07-06T03:23:06;3.55;;;3.25;;
17943;SDS011;9097;47.028;15.444;2022-07-06T03:26:10;3.17;;;2.72;;
17943;SDS011;9097;47.028;15.444;2022-07-06T03:29:12;3.38;;;3.08;;
17943;SDS011;9097;47.028;15.444;2022-07-06T03:32:15;6.07;;;2.85;;
17943;SDS011;9097;47.028;15.444;2022-07-06T03:35:17;3.67;;;2.92;;
17943;SDS011;9097;47.028;15.444;2022-07-06T03:38:21;4.28;;;2.92;;
17943;SDS011;9097;47.028;15.444;2022-07-06T03:41:24;3.10;;;2.72;;
17943;SDS011;9097;47.028;15.444;2022-07-06T03:44:26;3.28;;;2.63;;
17943;SDS011;9097;47.028;15.444;2022-07-06T03:47:29;4.85;;;3.42;;
17943;SDS011;9097;47.028;15.444;2022-07-06T03:50:31;3.95;;;3.10;;
17943;SDS011;9097;47.028;15.444;2022-07-06T03:53:35;4.53;;;2.72;;
17943;SDS011;9097;47.028;15.444;2022-07-06T03:56:39;6.45;;;3.10;;
17943;SDS011;9097;47.028;15.444;2022-07-06T03:59:41;4.65;;;2.92;;
17943;SDS011;9097;47.028;15.444;2022-07-06T04:02:45;4.10;;;2.90;;
17943;SDS011;9097;47.028;15.444;2022-07-06T04:05:48;5.30;;;3.22;;
17943;SDS011;9097;47.028;15.444;2022-07-06T04:08:52;3.63;;;2.80;;
17943;SDS011;9097;47.028;15.444;2022-07-06T04:11:54;4.43;;;2.95;;
17943;SDS011;9097;47.028;15.444;2022-07-06T04:14:57;5.43;;;3.63;;
17943;SDS011;9097;47.028;15.444;2022-07-06T04:17:59;5.07;;;3.47;;
17943;SDS011;9097;47.028;15.444;2022-07-06T04:21:02;3.90;;;3.25;;
17943;SDS011;9097;47.028;15.444;2022-07-06T04:24:06;7.85;;;3.20;;
17943;SDS011;9097;47.028;15.444;2022-07-06T04:27:09;4.05;;;2.85;;
17943;SDS011;9097;47.028;15.444;2022-07-06T04:30:12;3.92;;;2.97;;
17943;SDS011;9097;47.028;15.444;2022-07-06T04:33:14;3.60;;;3.13;;
17943;SDS011;9097;47.028;15.444;2022-07-06T04:36:17;4.05;;;3.38;;
17943;SDS011;9097;47.028;15.444;2022-07-06T04:39:21;3.63;;;2.90;;
17943;SDS011;9097;47.028;15.444;2022-07-06T04:42:23;4.70;;;3.08;;
17943;SDS011;9097;47.028;15.444;2022-07-06T04:45:26;3.42;;;3.13;;
17943;SDS011;9097;47.028;15.444;2022-07-06T04:48:29;3.80;;;3.42;;
17943;SDS011;9097;47.028;15.444;2022-07-06T04:51:32;3.65;;;2.53;;
17943;SDS011;9097;47.028;15.444;2022-07-06T04:54:36;3.42;;;3.13;;
17943;SDS011;9097;47.028;15.444;2022-07-06T04:57:39;3.03;;;2.70;;
17943;SDS011;9097;47.028;15.444;2022-07-06T05:00:42;4.72;;;3.20;;
17943;SDS011;9097;47.028;15.444;2022-07-06T05:03:44;3.85;;;2.78;;
17943;SDS011;9097;47.028;15.444;2022-07-06T05:06:47;3.70;;;3.00;;
17943;SDS011;9097;47.028;15.444;2022-07-06T05:09:54;4.78;;;3.63;;
17943;SDS011;9097;47.028;15.444;2022-07-06T05:12:57;5.28;;;3.25;;
17943;SDS011;9097;47.028;15.444;2022-07-06T05:16:00;3.80;;;2.88;;
17943;SDS011;9097;47.028;15.444;2022-07-06T05:19:03;4.00;;;2.92;;
17943;SDS011;9097;47.028;15.444;2022-07-06T05:22:05;2.58;;;2.33;;
17943;SDS011;9097;47.028;15.444;2022-07-06T05:25:10;3.85;;;3.10;;
17943;SDS011;9097;47.028;15.444;2022-07-06T05:28:13;3.75;;;3.28;;
17943;SDS011;9097;47.028;15.444;2022-07-06T05:31:16;3.40;;;3.05;;
17943;SDS011;9097;47.028;15.444;2022-07-06T05:34:21;4.57;;;3.35;;
17943;SDS011;9097;47.028;15.444;2022-07-06T05:37:24;4.90;;;3.20;;
17943;SDS011;9097;47.028;15.444;2022-07-06T05:40:28;4.70;;;3.13;;
17943;SDS011;9097;47.028;15.444;2022-07-06T05:43:35;5.30;;;3.72;;
17943;SDS011;9097;47.028;15.444;2022-07-06T05:46:37;5.70;;;3.60;;
17943;SDS011;9097;47.028;15.444;2022-07-06T05:49:41;3.45;;;2.63;;
17943;SDS011;9097;47.028;15.444;2022-07-06T05:53:01;6.05;;;2.90;;
17943;SDS011;9097;47.028;15.444;2022-07-06T05:56:06;2.88;;;2.55;;
17943;SDS011;9097;47.028;15.444;2022-07-06T05:59:08;3.42;;;3.10;;
17943;SDS011;9097;47.028;15.444;2022-07-06T06:02:11;2.75;;;2.40;;
17943;SDS011;9097;47.028;15.444;2022-07-06T06:05:13;2.97;;;2.67;;
17943;SDS011;9097;47.028;15.444;2022-07-06T06:08:17;2.58;;;2.15;;
17943;SDS011;9097;47.028;15.444;2022-07-06T06:11:21;3.53;;;2.42;;
17943;SDS011;9097;47.028;15.444;2022-07-06T06:14:24;4.95;;;3.40;;
17943;SDS011;9097;47.028;15.444;2022-07-06T06:17:26;3.47;;;2.78;;
17943;SDS011;9097;47.028;15.444;2022-07-06T06:20:29;3.05;;;2.63;;
17943;SDS011;9097;47.028;15.444;2022-07-06T06:23:31;3.97;;;3.05;;
17943;SDS011;9097;47.028;15.444;2022-07-06T06:26:35;4.72;;;3.88;;
17943;SDS011;9097;47.028;15.444;2022-07-06T06:29:38;4.38;;;2.60;;
17943;SDS011;9097;47.028;15.444;2022-07-06T06:32:41;4.40;;;3.33;;
17943;SDS011;9097;47.028;15.444;2022-07-06T06:35:44;5.72;;;2.83;;
17943;SDS011;9097;47.028;15.444;2022-07-06T06:38:47;2.55;;;2.28;;
17943;SDS011;9097;47.028;15.444;2022-07-06T06:41:51;3.65;;;2.45;;
17943;SDS011;9097;47.028;15.444;2022-07-06T06:44:53;5.22;;;3.30;;
17943;SDS011;9097;47.028;15.444;2022-07-06T06:47:56;3.63;;;2.85;;
17943;SDS011;9097;47.028;15.444;2022-07-06T06:50:58;4.00;;;2.75;;
17943;SDS011;9097;47.028;15.444;2022-07-06T06:54:01;5.90;;;2.88;;
17943;SDS011;9097;47.028;15.444;2022-07-06T06:57:06;2.70;;;2.50;;
17943;SDS011;9097;47.028;15.444;2022-07-06T07:00:08;3.95;;;2.70;;
17943;SDS011;9097;47.028;15.444;2022-07-06T07:03:12;2.35;;;2.15;;
17943;SDS011;9097;47.028;15.444;2022-07-06T07:06:14;3.92;;;2.05;;
17943;SDS011;9097;47.028;15.444;2022-07-06T07:09:17;3.67;;;2.75;;
17943;SDS011;9097;47.028;15.444;2022-07-06T07:12:20;3.67;;;2.45;;
17943;SDS011;9097;47.028;15.444;2022-07-06T07:15:23;3.40;;;2.60;;
17943;SDS011;9097;47.028;15.444;2022-07-06T07:18:25;2.67;;;2.03;;
17943;SDS011;9097;47.028;15.444;2022-07-06T07:21:28;4.03;;;2.83;;
17943;SDS011;9097;47.028;15.444;2022-07-06T07:24:30;2.75;;;1.77;;
17943;SDS011;9097;47.028;15.444;2022-07-06T07:27:34;3.65;;;3.03;;
17943;SDS011;9097;47.028;15.444;2022-07-06T07:30:36;2.30;;;2.10;;
17943;SDS011;9097;47.028;15.444;2022-07-06T07:33:38;2.45;;;2.25;;
17943;SDS011;9097;47.028;15.444;2022-07-06T07:36:41;3.63;;;1.92;;
17943;SDS011;9097;47.028;15.444;2022-07-06T07:39:43;1.88;;;1.77;;
17943;SDS011;9097;47.028;15.444;2022-07-06T07:42:47;1.90;;;1.77;;
17943;SDS011;9097;47.028;15.444;2022-07-06T07:45:49;2.55;;;2.10;;
17943;SDS011;9097;47.028;15.444;2022-07-06T07:48:52;2.90;;;2.08;;
17943;SDS011;9097;47.028;15.444;2022-07-06T07:51:54;2.33;;;2.13;;
17943;SDS011;9097;47.028;15.444;2022-07-06T07:54:56;1.60;;;1.50;;
17943;SDS011;9097;47.028;15.444;2022-07-06T07:58:00;2.97;;;2.08;;
17943;SDS011;9097;47.028;15.444;2022-07-06T08:01:03;3.25;;;2.08;;
17943;SDS011;9097;47.028;15.444;2022-07-06T08:04:06;1.95;;;1.80;;
17943;SDS011;9097;47.028;15.444;2022-07-06T08:07:09;2.75;;;1.98;;
17943;SDS011;9097;47.028;15.444;2022-07-06T08:10:11;2.50;;;1.88;;
17943;SDS011;9097;47.028;15.444;2022-07-06T08:13:15;3.30;;;1.77;;
17943;SDS011;9097;47.028;15.444;2022-07-06T08:16:17;2.88;;;2.05;;
17943;SDS011;9097;47.028;15.444;2022-07-06T08:19:20;1.80;;;1.30;;
17943;SDS011;9097;47.028;15.444;2022-07-06T08:22:22;2.13;;;1.85;;
17943;SDS011;9097;47.028;15.444;2022-07-06T08:25:25;1.77;;;1.67;;
17943;SDS011;9097;47.028;15.444;2022-07-06T08:28:30;1.95;;;1.48;;
17943;SDS011;9097;47.028;15.444;2022-07-06T08:31:32;1.55;;;1.10;;
17943;SDS011;9097;47.028;15.444;2022-07-06T08:34:34;5.90;;;3.83;;
17943;SDS011;9097;47.028;15.444;2022-07-06T08:37:37;3.20;;;2.20;;
17943;SDS011;9097;47.028;15.444;2022-07-06T08:40:40;2.33;;;1.45;;
17943;SDS011;9097;47.028;15.444;2022-07-06T08:43:44;1.08;;;1.05;;
17943;SDS011;9097;47.028;15.444;2022-07-06T08:46:47;1.40;;;1.30;;
17943;SDS011;9097;47.028;15.444;2022-07-06T08:49:53;1.35;;;1.25;;
17943;SDS011;9097;47.028;15.444;2022-07-06T08:52:56;0.88;;;0.88;;
17943;SDS011;9097;47.028;15.444;2022-07-06T08:55:59;3.30;;;1.08;;
17943;SDS011;9097;47.028;15.444;2022-07-06T08:59:04;3.88;;;1.15;;
17943;SDS011;9097;47.028;15.444;2022-07-06T09:02:11;1.83;;;1.15;;
17943;SDS011;9097;47.028;15.444;2022-07-06T09:05:15;1.38;;;1.27;;
17943;SDS011;9097;47.028;15.444;2022-07-06T09:08:18;0.95;;;0.85;;
17943;SDS011;9097;47.028;15.444;2022-07-06T09:11:22;0.82;;;0.82;;
17943;SDS011;9097;47.028;15.444;2022-07-06T09:14:28;1.05;;;0.95;;
17943;SDS011;9097;47.028;15.444;2022-07-06T09:17:31;4.80;;;0.80;;
17943;SDS011;9097;47.028;15.444;2022-07-06T09:20:34;3.03;;;1.08;;
17943;SDS011;9097;47.028;15.444;2022-07-06T09:23:36;1.08;;;0.98;;
17943;SDS011;9097;47.028;15.444;2022-07-06T09:26:39;1.23;;;1.10;;
17943;SDS011;9097;47.028;15.444;2022-07-06T09:29:43;1.90;;;0.90;;
17943;SDS011;9097;47.028;15.444;2022-07-06T09:32:47;1.00;;;0.90;;
17943;SDS011;9097;47.028;15.444;2022-07-06T09:35:51;1.02;;;0.98;;
17943;SDS011;9097;47.028;15.444;2022-07-06T09:38:57;1.10;;;1.00;;
17943;SDS011;9097;47.028;15.444;2022-07-06T09:42:00;1.40;;;1.15;;
17943;SDS011;9097;47.028;15.444;2022-07-06T09:45:06;1.02;;;0.93;;
17943;SDS011;9097;47.028;15.444;2022-07-06T09:48:11;0.75;;;0.75;;
17943;SDS011;9097;47.028;15.444;2022-07-06T09:51:15;0.80;;;0.80;;
17943;SDS011;9097;47.028;15.444;2022-07-06T09:54:18;3.90;;;0.90;;
17943;SDS011;9097;47.028;15.444;2022-07-06T09:57:20;1.10;;;1.00;;
17943;SDS011;9097;47.028;15.444;2022-07-06T10:00:25;2.70;;;1.10;;
17943;SDS011;9097;47.028;15.444;2022-07-06T10:03:27;2.50;;;0.75;;
17943;SDS011;9097;47.028;15.444;2022-07-06T10:06:31;1.00;;;0.93;;
17943;SDS011;9097;47.028;15.444;2022-07-06T10:09:33;5.20;;;2.38;;
17943;SDS011;9097;47.028;15.444;2022-07-06T10:12:35;3.10;;;2.13;;
17943;SDS011;9097;47.028;15.444;2022-07-06T10:15:40;2.00;;;1.40;;
17943;SDS011;9097;47.028;15.444;2022-07-06T10:18:42;1.33;;;1.17;;
17943;SDS011;9097;47.028;15.444;2022-07-06T10:21:45;1.25;;;1.10;;
17943;SDS011;9097;47.028;15.444;2022-07-06T10:24:48;1.13;;;1.05;;
17943;SDS011;9097;47.028;15.444;2022-07-06T10:27:52;1.02;;;0.93;;
17943;SDS011;9097;47.028;15.444;2022-07-06T10:30:57;3.80;;;0.90;;
17943;SDS011;9097;47.028;15.444;2022-07-06T10:33:59;0.80;;;0.80;;
17943;SDS011;9097;47.028;15.444;2022-07-06T10:37:03;0.77;;;0.77;;
17943;SDS011;9097;47.028;15.444;2022-07-06T10:40:06;0.80;;;0.80;;
17943;SDS011;9097;47.028;15.444;2022-07-06T10:43:36;1.80;;;0.98;;
17943;SDS011;9097;47.028;15.444;2022-07-06T10:46:41;3.95;;;0.90;;
17943;SDS011;9097;47.028;15.444;2022-07-06T10:49:50;1.88;;;1.10;;
17943;SDS011;9097;47.028;15.444;2022-07-06T10:53:00;0.75;;;0.75;;
17943;SDS011;9097;47.028;15.444;2022-07-06T10:56:03;1.55;;;1.17;;
17943;SDS011;9097;47.028;15.444;2022-07-06T10:59:10;0.95;;;0.80;;
17943;SDS011;9097;47.028;15.444;2022-07-06T11:02:15;0.70;;;0.70;;
17943;SDS011;9097;47.028;15.444;2022-07-06T11:08:48;0.70;;;0.70;;
17943;SDS011;9097;47.028;15.444;2022-07-06T11:11:52;1.25;;;1.00;;
17943;SDS011;9097;47.028;15.444;2022-07-06T11:14:58;0.90;;;0.50;;
17943;SDS011;9097;47.028;15.444;2022-07-06T11:18:11;1.92;;;1.30;;
17943;SDS011;9097;47.028;15.444;2022-07-06T11:21:17;0.90;;;0.70;;
17943;SDS011;9097;47.028;15.444;2022-07-06T11:24:21;0.73;;;0.73;;
17943;SDS011;9097;47.028;15.444;2022-07-06T11:27:25;7.25;;;1.27;;
17943;SDS011;9097;47.028;15.444;2022-07-06T11:30:28;1.38;;;0.80;;
17943;SDS011;9097;47.028;15.444;2022-07-06T11:33:32;1.02;;;0.90;;
17943;SDS011;9097;47.028;15.444;2022-07-06T11:36:35;0.60;;;0.60;;
17943;SDS011;9097;47.028;15.444;2022-07-06T11:39:38;0.60;;;0.60;;
17943;SDS011;9097;47.028;15.444;2022-07-06T11:42:52;1.13;;;1.02;;
17943;SDS011;9097;47.028;15.444;2022-07-06T11:45:55;0.80;;;0.80;;
17943;SDS011;9097;47.028;15.444;2022-07-06T11:48:59;0.57;;;0.57;;
17943;SDS011;9097;47.028;15.444;2022-07-06T11:52:04;0.93;;;0.93;;
17943;SDS011;9097;47.028;15.444;2022-07-06T11:55:07;1.00;;;0.90;;
17943;SDS011;9097;47.028;15.444;2022-07-06T11:58:10;0.68;;;0.68;;
17943;SDS011;9097;47.028;15.444;2022-07-06T12:01:14;1.00;;;0.88;;
17943;SDS011;9097;47.028;15.444;2022-07-06T12:04:18;0.95;;;0.70;;
17943;SDS011;9097;47.028;15.444;2022-07-06T12:07:20;0.50;;;0.50;;
17943;SDS011;9097;47.028;15.444;2022-07-06T12:10:30;0.90;;;0.80;;
17943;SDS011;9097;47.028;15.444;2022-07-06T12:13:36;0.85;;;0.80;;
17943;SDS011;9097;47.028;15.444;2022-07-06T12:16:42;1.90;;;0.88;;
17943;SDS011;9097;47.028;15.444;2022-07-06T12:19:46;1.17;;;0.90;;
17943;SDS011;9097;47.028;15.444;2022-07-06T12:23:00;0.73;;;0.73;;
17943;SDS011;9097;47.028;15.444;2022-07-06T12:26:03;0.80;;;0.80;;
17943;SDS011;9097;47.028;15.444;2022-07-06T12:29:06;2.35;;;0.70;;
17943;SDS011;9097;47.028;15.444;2022-07-06T12:32:13;1.02;;;0.60;;
17943;SDS011;9097;47.028;15.444;2022-07-06T12:35:18;0.60;;;0.60;;
17943;SDS011;9097;47.028;15.444;2022-07-06T12:38:25;0.98;;;0.98;;
17943;SDS011;9097;47.028;15.444;2022-07-06T12:41:28;2.22;;;0.57;;
17943;SDS011;9097;47.028;15.444;2022-07-06T12:44:32;0.88;;;0.70;;
17943;SDS011;9097;47.028;15.444;2022-07-06T12:47:35;1.35;;;0.70;;
17943;SDS011;9097;47.028;15.444;2022-07-06T12:50:41;1.20;;;0.90;;
17943;SDS011;9097;47.028;15.444;2022-07-06T12:53:44;1.00;;;0.73;;
17943;SDS011;9097;47.028;15.444;2022-07-06T12:56:56;0.90;;;0.90;;
17943;SDS011;9097;47.028;15.444;2022-07-06T13:00:00;0.70;;;0.70;;
17943;SDS011;9097;47.028;15.444;2022-07-06T13:03:03;0.80;;;0.80;;
17943;SDS011;9097;47.028;15.444;2022-07-06T13:06:07;0.68;;;0.68;;
17943;SDS011;9097;47.028;15.444;2022-07-06T13:09:09;0.75;;;0.75;;
17943;SDS011;9097;47.028;15.444;2022-07-06T13:12:14;0.70;;;0.70;;
17943;SDS011;9097;47.028;15.444;2022-07-06T13:15:17;0.77;;;0.68;;
17943;SDS011;9097;47.028;15.444;2022-07-06T13:18:19;2.50;;;1.15;;
17943;SDS011;9097;47.028;15.444;2022-07-06T13:21:24;0.90;;;0.80;;
17943;SDS011;9097;47.028;15.444;2022-07-06T13:24:27;0.90;;;0.80;;
17943;SDS011;9097;47.028;15.444;2022-07-06T13:27:30;0.73;;;0.70;;
17943;SDS011;9097;47.028;15.444;2022-07-06T13:30:32;1.67;;;0.70;;
17943;SDS011;9097;47.028;15.444;2022-07-06T13:33:35;1.02;;;1.00;;
17943;SDS011;9097;47.028;15.444;2022-07-06T13:36:39;0.57;;;0.57;;
17943;SDS011;9097;47.028;15.444;2022-07-06T13:39:42;0.80;;;0.70;;
17943;SDS011;9097;47.028;15.444;2022-07-06T13:42:44;0.68;;;0.68;;
17943;SDS011;9097;47.028;15.444;2022-07-06T13:45:46;0.40;;;0.40;;
17943;SDS011;9097;47.028;15.444;2022-07-06T13:48:50;0.82;;;0.82;;
17943;SDS011;9097;47.028;15.444;2022-07-06T13:51:54;1.00;;;0.73;;
17943;SDS011;9097;47.028;15.444;2022-07-06T13:55:02;0.73;;;0.73;;
17943;SDS011;9097;47.028;15.444;2022-07-06T13:58:06;0.80;;;0.80;;
17943;SDS011;9097;47.028;15.444;2022-07-06T14:01:09;0.70;;;0.70;;
17943;SDS011;9097;47.028;15.444;2022-07-06T14:04:12;0.82;;;0.82;;
17943;SDS011;9097;47.028;15.444;2022-07-06T14:07:16;0.93;;;0.73;;
17943;SDS011;9097;47.028;15.444;2022-07-06T14:10:19;1.38;;;0.95;;
17943;SDS011;9097;47.028;15.444;2022-07-06T14:13:22;1.52;;;0.80;;
17943;SDS011;9097;47.028;15.444;2022-07-06T14:16:26;0.52;;;0.52;;
17943;SDS011;9097;47.028;15.444;2022-07-06T14:19:29;0.63;;;0.57;;
17943;SDS011;9097;47.028;15.444;2022-07-06T14:22:32;0.60;;;0.60;;
17943;SDS011;9097;47.028;15.444;2022-07-06T14:25:37;3.58;;;0.75;;
17943;SDS011;9097;47.028;15.444;2022-07-06T14:28:41;1.25;;;0.80;;
17943;SDS011;9097;47.028;15.444;2022-07-06T14:31:43;0.80;;;0.77;;
17943;SDS011;9097;47.028;15.444;2022-07-06T14:34:47;2.22;;;1.23;;
17943;SDS011;9097;47.028;15.444;2022-07-06T14:37:51;0.93;;;0.80;;
17943;SDS011;9097;47.028;15.444;2022-07-06T14:40:54;0.68;;;0.68;;
17943;SDS011;9097;47.028;15.444;2022-07-06T14:43:57;0.70;;;0.70;;
17943;SDS011;9097;47.028;15.444;2022-07-06T14:50:08;0.60;;;0.60;;
17943;SDS011;9097;47.028;15.444;2022-07-06T14:56:24;0.80;;;0.80;;
17943;SDS011;9097;47.028;15.444;2022-07-06T15:05:44;1.08;;;0.77;;
17943;SDS011;9097;47.028;15.444;2022-07-06T15:08:51;0.80;;;0.80;;
17943;SDS011;9097;47.028;15.444;2022-07-06T15:11:55;0.85;;;0.60;;
17943;SDS011;9097;47.028;15.444;2022-07-06T15:18:26;0.65;;;0.65;;
17943;SDS011;9097;47.028;15.444;2022-07-06T15:21:34;0.52;;;0.52;;
17943;SDS011;9097;47.028;15.444;2022-07-06T15:24:41;0.80;;;0.80;;
17943;SDS011;9097;47.028;15.444;2022-07-06T15:27:49;0.85;;;0.85;;
17943;SDS011;9097;47.028;15.444;2022-07-06T15:30:57;0.68;;;0.60;;
17943;SDS011;9097;47.028;15.444;2022-07-06T15:34:05;0.70;;;0.70;;
17943;SDS011;9097;47.028;15.444;2022-07-06T15:37:13;0.73;;;0.73;;
17943;SDS011;9097;47.028;15.444;2022-07-06T15:40:23;1.33;;;0.98;;
17943;SDS011;9097;47.028;15.444;2022-07-06T15:43:33;0.70;;;0.70;;
17943;SDS011;9097;47.028;15.444;2022-07-06T15:46:41;0.75;;;0.75;;
17943;SDS011;9097;47.028;15.444;2022-07-06T15:52:56;0.47;;;0.47;;
17943;SDS011;9097;47.028;15.444;2022-07-06T16:02:18;0.70;;;0.70;;
17943;SDS011;9097;47.028;15.444;2022-07-06T16:08:34;0.57;;;0.52;;
17943;SDS011;9097;47.028;15.444;2022-07-06T16:14:50;2.00;;;0.77;;
17943;SDS011;9097;47.028;15.444;2022-07-06T16:17:58;0.60;;;0.60;;
17943;SDS011;9097;47.028;15.444;2022-07-06T16:24:10;1.17;;;0.90;;
17943;SDS011;9097;47.028;15.444;2022-07-06T16:27:19;0.93;;;0.70;;
17943;SDS011;9097;47.028;15.444;2022-07-06T16:30:27;0.80;;;0.80;;
17943;SDS011;9097;47.028;15.444;2022-07-06T16:33:36;2.08;;;0.55;;
17943;SDS011;9097;47.028;15.444;2022-07-06T16:39:50;0.68;;;0.68;;
17943;SDS011;9097;47.028;15.444;2022-07-06T16:49:11;1.17;;;0.77;;
17943;SDS011;9097;47.028;15.444;2022-07-06T16:52:19;0.60;;;0.60;;
17943;SDS011;9097;47.028;15.444;2022-07-06T16:55:29;0.82;;;0.82;;
17943;SDS011;9097;47.028;15.444;2022-07-06T17:01:56;5.00;;;1.38;;
17943;SDS011;9097;47.028;15.444;2022-07-06T17:05:05;1.30;;;0.95;;
17943;SDS011;9097;47.028;15.444;2022-07-06T17:08:13;1.27;;;1.13;;
17943;SDS011;9097;47.028;15.444;2022-07-06T17:11:22;0.95;;;0.80;;
17943;SDS011;9097;47.028;15.444;2022-07-06T17:14:32;1.15;;;1.00;;
17943;SDS011;9097;47.028;15.444;2022-07-06T17:17:37;1.27;;;1.10;;
17943;SDS011;9097;47.028;15.444;2022-07-06T17:20:45;1.15;;;1.15;;
17943;SDS011;9097;47.028;15.444;2022-07-06T17:23:53;1.45;;;0.90;;
17943;SDS011;9097;47.028;15.444;2022-07-06T17:27:02;1.02;;;0.85;;
17943;SDS011;9097;47.028;15.444;2022-07-06T17:30:13;0.82;;;0.82;;
17943;SDS011;9097;47.028;15.444;2022-07-06T17:33:21;1.15;;;0.95;;
17943;SDS011;9097;47.028;15.444;2022-07-06T17:36:29;1.27;;;1.10;;
17943;SDS011;9097;47.028;15.444;2022-07-06T17:39:31;0.90;;;0.73;;
17943;SDS011;9097;47.028;15.444;2022-07-06T17:42:39;0.75;;;0.75;;
17943;SDS011;9097;47.028;15.444;2022-07-06T17:45:48;1.60;;;1.10;;
17943;SDS011;9097;47.028;15.444;2022-07-06T17:48:58;1.13;;;1.02;;
17943;SDS011;9097;47.028;15.444;2022-07-06T17:52:03;1.60;;;1.20;;
17943;SDS011;9097;47.028;15.444;2022-07-06T17:58:25;2.60;;;1.00;;
17943;SDS011;9097;47.028;15.444;2022-07-06T18:01:34;1.02;;;0.93;;
17943;SDS011;9097;47.028;15.444;2022-07-06T18:04:41;1.00;;;1.00;;
17943;SDS011;9097;47.028;15.444;2022-07-06T18:07:52;0.90;;;0.90;;
17943;SDS011;9097;47.028;15.444;2022-07-06T18:10:58;1.70;;;1.00;;
17943;SDS011;9097;47.028;15.444;2022-07-06T18:14:07;1.00;;;0.95;;
17943;SDS011;9097;47.028;15.444;2022-07-06T18:17:14;3.60;;;1.50;;
17943;SDS011;9097;47.028;15.444;2022-07-06T18:20:17;3.50;;;2.00;;
17943;SDS011;9097;47.028;15.444;2022-07-06T18:23:20;1.60;;;1.50;;
17943;SDS011;9097;47.028;15.444;2022-07-06T18:26:22;1.35;;;1.10;;
17943;SDS011;9097;47.028;15.444;2022-07-06T18:29:25;1.35;;;1.25;;
17943;SDS011;9097;47.028;15.444;2022-07-06T18:32:29;1.50;;;1.40;;
17943;SDS011;9097;47.028;15.444;2022-07-06T18:35:32;1.50;;;1.38;;
17943;SDS011;9097;47.028;15.444;2022-07-06T18:38:34;1.83;;;1.38;;
17943;SDS011;9097;47.028;15.444;2022-07-06T18:41:38;1.55;;;1.45;;
17943;SDS011;9097;47.028;15.444;2022-07-06T18:44:43;2.13;;;1.48;;
17943;SDS011;9097;47.028;15.444;2022-07-06T18:47:50;1.58;;;1.35;;
17943;SDS011;9097;47.028;15.444;2022-07-06T18:50:52;3.67;;;2.20;;
17943;SDS011;9097;47.028;15.444;2022-07-06T18:53:55;2.05;;;1.70;;
17943;SDS011;9097;47.028;15.444;2022-07-06T18:56:57;1.17;;;1.08;;
17943;SDS011;9097;47.028;15.444;2022-07-06T19:00:04;1.80;;;1.70;;
17943;SDS011;9097;47.028;15.444;2022-07-06T19:03:18;1.85;;;1.63;;
17943;SDS011;9097;47.028;15.444;2022-07-06T19:06:21;1.50;;;1.40;;
17943;SDS011;9097;47.028;15.444;2022-07-06T19:09:23;1.30;;;1.20;;
17943;SDS011;9097;47.028;15.444;2022-07-06T19:12:26;2.03;;;1.30;;
17943;SDS011;9097;47.028;15.444;2022-07-06T19:15:29;1.30;;;1.20;;
17943;SDS011;9097;47.028;15.444;2022-07-06T19:18:34;1.35;;;1.25;;
17943;SDS011;9097;47.028;15.444;2022-07-06T19:21:37;1.42;;;1.23;;
17943;SDS011;9097;47.028;15.444;2022-07-06T19:24:39;1.65;;;1.50;;